sensor_id;sensor_type;location;lat;lon;timestamp;temperature;humidity
24148;DHT22;12309;51.450;-2.624;2023-02-25T00:01:07;5.30;99.90
24148;DHT22;12309;51.450;-2.624;2023-02-25T00:03:34;5.30;99.90
24148;DHT22;12309;51.450;-2.624;2023-02-25T00:06:05;5.30;99.90
24148;DHT22;12309;51.450;-2.624;2023-02-25T00:08:32;5.50;99.90
24148;DHT22;12309;51.450;-2.624;2023-02-25T00:11:03;5.30;99.90
24148;DHT22;12309;51.450;-2.624;2023-02-25T00:13:29;5.30;99.90
24148;DHT22;12309;51.450;-2.624;2023-02-25T00:15:56;5.20;99.90
24148;DHT22;12309;51.450;-2.624;2023-02-25T00:18:25;5.20;99.90
24148;DHT22;12309;51.450;-2.624;2023-02-25T00:20:51;5.20;99.90
24148;DHT22;12309;51.450;-2.624;2023-02-25T00:23:17;5.20;99.90
24148;DHT22;12309;51.450;-2.624;2023-02-25T00:25:43;5.50;99.90
24148;DHT22;12309;51.450;-2.624;2023-02-25T00:28:10;5.10;99.90
24148;DHT22;12309;51.450;-2.624;2023-02-25T00:30:38;5.00;99.90
24148;DHT22;12309;51.450;-2.624;2023-02-25T00:33:04;5.00;99.90
24148;DHT22;12309;51.450;-2.624;2023-02-25T00:35:32;5.00;99.90
24148;DHT22;12309;51.450;-2.624;2023-02-25T00:37:59;5.00;99.90
24148;DHT22;12309;51.450;-2.624;2023-02-25T00:40:24;5.00;99.90
24148;DHT22;12309;51.450;-2.624;2023-02-25T00:42:50;4.90;99.90
24148;DHT22;12309;51.450;-2.624;2023-02-25T00:45:15;4.90;99.90
24148;DHT22;12309;51.450;-2.624;2023-02-25T00:47:42;4.90;99.90
24148;DHT22;12309;51.450;-2.624;2023-02-25T00:50:08;5.00;99.90
24148;DHT22;12309;51.450;-2.624;2023-02-25T00:52:35;4.80;99.90
24148;DHT22;12309;51.450;-2.624;2023-02-25T00:55:02;4.80;99.90
24148;DHT22;12309;51.450;-2.624;2023-02-25T00:57:28;4.80;99.90
24148;DHT22;12309;51.450;-2.624;2023-02-25T00:59:54;4.90;99.90
24148;DHT22;12309;51.450;-2.624;2023-02-25T01:02:19;5.50;99.90
24148;DHT22;12309;51.450;-2.624;2023-02-25T01:04:45;4.90;99.90
24148;DHT22;12309;51.450;-2.624;2023-02-25T01:07:10;5.50;99.90
24148;DHT22;12309;51.450;-2.624;2023-02-25T01:09:36;4.80;99.90
24148;DHT22;12309;51.450;-2.624;2023-02-25T01:12:02;4.90;99.90
24148;DHT22;12309;51.450;-2.624;2023-02-25T01:14:27;4.70;99.90
24148;DHT22;12309;51.450;-2.624;2023-02-25T01:19:23;4.60;99.90
24148;DHT22;12309;51.450;-2.624;2023-02-25T01:21:51;4.60;99.90
24148;DHT22;12309;51.450;-2.624;2023-02-25T01:24:22;4.30;99.90
24148;DHT22;12309;51.450;-2.624;2023-02-25T01:26:51;4.50;99.90
24148;DHT22;12309;51.450;-2.624;2023-02-25T01:29:22;4.30;99.90
24148;DHT22;12309;51.450;-2.624;2023-02-25T01:31:51;4.50;99.90
24148;DHT22;12309;51.450;-2.624;2023-02-25T01:34:17;4.40;99.90
24148;DHT22;12309;51.450;-2.624;2023-02-25T01:36:44;4.30;99.90
24148;DHT22;12309;51.450;-2.624;2023-02-25T01:39:11;4.30;99.90
24148;DHT22;12309;51.450;-2.624;2023-02-25T01:41:37;4.30;99.90
24148;DHT22;12309;51.450;-2.624;2023-02-25T01:44:21;4.20;99.90
24148;DHT22;12309;51.450;-2.624;2023-02-25T01:46:49;4.20;99.90
24148;DHT22;12309;51.450;-2.624;2023-02-25T01:49:20;4.10;99.90
24148;DHT22;12309;51.450;-2.624;2023-02-25T01:51:49;4.10;99.90
24148;DHT22;12309;51.450;-2.624;2023-02-25T01:54:16;4.10;99.90
24148;DHT22;12309;51.450;-2.624;2023-02-25T01:56:47;4.10;99.90
24148;DHT22;12309;51.450;-2.624;2023-02-25T01:59:14;4.10;99.90
24148;DHT22;12309;51.450;-2.624;2023-02-25T02:01:41;4.00;99.90
24148;DHT22;12309;51.450;-2.624;2023-02-25T02:04:09;4.00;99.90
24148;DHT22;12309;51.450;-2.624;2023-02-25T02:06:41;4.00;99.90
24148;DHT22;12309;51.450;-2.624;2023-02-25T02:09:13;4.00;99.90
24148;DHT22;12309;51.450;-2.624;2023-02-25T02:11:40;4.00;99.90
24148;DHT22;12309;51.450;-2.624;2023-02-25T02:14:07;4.10;99.90
24148;DHT22;12309;51.450;-2.624;2023-02-25T02:22:11;4.10;99.90
24148;DHT22;12309;51.450;-2.624;2023-02-25T02:33:01;4.10;99.90
24148;DHT22;12309;51.450;-2.624;2023-02-25T02:38:13;4.00;99.90
24148;DHT22;12309;51.450;-2.624;2023-02-25T02:43:40;4.00;99.90
24148;DHT22;12309;51.450;-2.624;2023-02-25T02:51:29;3.90;99.90
24148;DHT22;12309;51.450;-2.624;2023-02-25T02:53:57;4.00;99.90
24148;DHT22;12309;51.450;-2.624;2023-02-25T02:56:25;4.00;99.90
24148;DHT22;12309;51.450;-2.624;2023-02-25T02:58:58;3.90;99.90
24148;DHT22;12309;51.450;-2.624;2023-02-25T03:01:36;4.00;99.90
24148;DHT22;12309;51.450;-2.624;2023-02-25T03:04:06;3.90;99.90
24148;DHT22;12309;51.450;-2.624;2023-02-25T03:06:37;3.90;99.90
24148;DHT22;12309;51.450;-2.624;2023-02-25T03:09:15;3.80;99.90
24148;DHT22;12309;51.450;-2.624;2023-02-25T03:11:42;3.80;99.90
24148;DHT22;12309;51.450;-2.624;2023-02-25T03:14:09;3.70;99.90
24148;DHT22;12309;51.450;-2.624;2023-02-25T03:16:42;3.80;99.90
24148;DHT22;12309;51.450;-2.624;2023-02-25T03:19:18;3.90;99.90
24148;DHT22;12309;51.450;-2.624;2023-02-25T03:21:48;3.30;99.90
24148;DHT22;12309;51.450;-2.624;2023-02-25T03:24:25;3.70;99.90
24148;DHT22;12309;51.450;-2.624;2023-02-25T03:26:53;3.60;99.90
24148;DHT22;12309;51.450;-2.624;2023-02-25T03:29:21;3.70;99.90
24148;DHT22;12309;51.450;-2.624;2023-02-25T03:31:56;3.70;99.90
24148;DHT22;12309;51.450;-2.624;2023-02-25T03:34:30;3.70;99.90
24148;DHT22;12309;51.450;-2.624;2023-02-25T03:37:02;3.70;99.90
24148;DHT22;12309;51.450;-2.624;2023-02-25T03:39:32;3.60;99.90
24148;DHT22;12309;51.450;-2.624;2023-02-25T03:42:01;3.60;99.90
24148;DHT22;12309;51.450;-2.624;2023-02-25T03:44:39;3.50;99.90
24148;DHT22;12309;51.450;-2.624;2023-02-25T03:47:07;4.20;99.90
24148;DHT22;12309;51.450;-2.624;2023-02-25T03:49:39;3.40;99.90
24148;DHT22;12309;51.450;-2.624;2023-02-25T03:52:12;6.00;99.90
24148;DHT22;12309;51.450;-2.624;2023-02-25T03:54:38;3.50;99.90
24148;DHT22;12309;51.450;-2.624;2023-02-25T03:57:04;3.50;99.90
24148;DHT22;12309;51.450;-2.624;2023-02-25T03:59:30;3.50;99.90
24148;DHT22;12309;51.450;-2.624;2023-02-25T04:01:56;3.50;99.90
24148;DHT22;12309;51.450;-2.624;2023-02-25T04:04:23;3.50;99.90
24148;DHT22;12309;51.450;-2.624;2023-02-25T04:06:48;3.40;99.90
24148;DHT22;12309;51.450;-2.624;2023-02-25T04:09:14;3.40;99.90
24148;DHT22;12309;51.450;-2.624;2023-02-25T04:11:39;3.40;99.90
24148;DHT22;12309;51.450;-2.624;2023-02-25T04:16:31;3.40;99.90
24148;DHT22;12309;51.450;-2.624;2023-02-25T04:18:56;3.40;99.90
24148;DHT22;12309;51.450;-2.624;2023-02-25T04:21:29;3.40;99.90
24148;DHT22;12309;51.450;-2.624;2023-02-25T04:23:55;3.60;99.90
24148;DHT22;12309;51.450;-2.624;2023-02-25T04:26:21;3.10;99.90
24148;DHT22;12309;51.450;-2.624;2023-02-25T04:28:47;3.30;99.90
24148;DHT22;12309;51.450;-2.624;2023-02-25T04:31:12;3.30;99.90
24148;DHT22;12309;51.450;-2.624;2023-02-25T04:33:38;3.10;99.90
24148;DHT22;12309;51.450;-2.624;2023-02-25T04:36:04;3.30;99.90
24148;DHT22;12309;51.450;-2.624;2023-02-25T04:38:30;3.20;99.90
24148;DHT22;12309;51.450;-2.624;2023-02-25T04:40:55;3.10;99.90
24148;DHT22;12309;51.450;-2.624;2023-02-25T04:43:21;3.10;99.90
24148;DHT22;12309;51.450;-2.624;2023-02-25T04:45:46;3.10;99.90
24148;DHT22;12309;51.450;-2.624;2023-02-25T04:48:12;3.00;99.90
24148;DHT22;12309;51.450;-2.624;2023-02-25T04:50:38;3.00;99.90
24148;DHT22;12309;51.450;-2.624;2023-02-25T04:53:03;3.10;99.90
24148;DHT22;12309;51.450;-2.624;2023-02-25T04:55:29;3.00;99.90
24148;DHT22;12309;51.450;-2.624;2023-02-25T04:57:55;2.90;99.90
24148;DHT22;12309;51.450;-2.624;2023-02-25T05:00:22;3.00;99.90
24148;DHT22;12309;51.450;-2.624;2023-02-25T05:02:54;3.00;99.90
24148;DHT22;12309;51.450;-2.624;2023-02-25T05:05:20;2.90;99.90
24148;DHT22;12309;51.450;-2.624;2023-02-25T05:07:46;2.90;99.90
24148;DHT22;12309;51.450;-2.624;2023-02-25T05:10:13;2.90;99.90
24148;DHT22;12309;51.450;-2.624;2023-02-25T05:12:39;2.90;99.90
24148;DHT22;12309;51.450;-2.624;2023-02-25T05:15:06;2.90;99.90
24148;DHT22;12309;51.450;-2.624;2023-02-25T05:17:33;2.90;99.90
24148;DHT22;12309;51.450;-2.624;2023-02-25T05:19:59;3.10;99.90
24148;DHT22;12309;51.450;-2.624;2023-02-25T05:22:26;3.00;99.90
24148;DHT22;12309;51.450;-2.624;2023-02-25T05:24:52;2.90;99.90
24148;DHT22;12309;51.450;-2.624;2023-02-25T05:27:18;3.10;99.90
24148;DHT22;12309;51.450;-2.624;2023-02-25T05:29:43;3.10;99.90
24148;DHT22;12309;51.450;-2.624;2023-02-25T05:32:09;2.90;99.90
24148;DHT22;12309;51.450;-2.624;2023-02-25T05:34:34;3.10;99.90
24148;DHT22;12309;51.450;-2.624;2023-02-25T05:37:00;3.10;99.90
24148;DHT22;12309;51.450;-2.624;2023-02-25T05:39:26;3.20;99.90
24148;DHT22;12309;51.450;-2.624;2023-02-25T05:41:51;3.20;99.90
24148;DHT22;12309;51.450;-2.624;2023-02-25T05:46:43;3.20;99.90
24148;DHT22;12309;51.450;-2.624;2023-02-25T05:49:09;3.40;99.90
24148;DHT22;12309;51.450;-2.624;2023-02-25T05:51:35;3.10;99.90
24148;DHT22;12309;51.450;-2.624;2023-02-25T05:54:01;3.10;99.90
24148;DHT22;12309;51.450;-2.624;2023-02-25T05:56:27;3.10;99.90
24148;DHT22;12309;51.450;-2.624;2023-02-25T05:58:53;3.10;99.90
24148;DHT22;12309;51.450;-2.624;2023-02-25T06:01:22;3.10;99.90
24148;DHT22;12309;51.450;-2.624;2023-02-25T06:03:49;3.10;99.90
24148;DHT22;12309;51.450;-2.624;2023-02-25T06:06:17;4.70;99.90
24148;DHT22;12309;51.450;-2.624;2023-02-25T06:08:48;6.90;99.90
24148;DHT22;12309;51.450;-2.624;2023-02-25T06:11:23;3.10;99.90
24148;DHT22;12309;51.450;-2.624;2023-02-25T06:13:50;3.20;99.90
24148;DHT22;12309;51.450;-2.624;2023-02-25T06:16:17;3.50;99.90
24148;DHT22;12309;51.450;-2.624;2023-02-25T06:18:43;3.50;99.90
24148;DHT22;12309;51.450;-2.624;2023-02-25T06:21:11;3.20;99.90
24148;DHT22;12309;51.450;-2.624;2023-02-25T06:23:38;3.30;99.90
24148;DHT22;12309;51.450;-2.624;2023-02-25T06:26:06;3.30;99.90
24148;DHT22;12309;51.450;-2.624;2023-02-25T06:28:33;3.30;99.90
24148;DHT22;12309;51.450;-2.624;2023-02-25T06:30:59;3.90;99.90
24148;DHT22;12309;51.450;-2.624;2023-02-25T06:33:25;3.60;99.90
24148;DHT22;12309;51.450;-2.624;2023-02-25T06:35:51;3.40;99.90
24148;DHT22;12309;51.450;-2.624;2023-02-25T06:38:17;3.50;99.90
24148;DHT22;12309;51.450;-2.624;2023-02-25T06:40:44;3.60;99.90
24148;DHT22;12309;51.450;-2.624;2023-02-25T06:43:10;3.60;99.90
24148;DHT22;12309;51.450;-2.624;2023-02-25T06:45:36;3.50;99.90
24148;DHT22;12309;51.450;-2.624;2023-02-25T06:48:01;3.60;99.90
24148;DHT22;12309;51.450;-2.624;2023-02-25T06:50:27;3.60;99.90
24148;DHT22;12309;51.450;-2.624;2023-02-25T06:52:53;3.60;99.90
24148;DHT22;12309;51.450;-2.624;2023-02-25T06:55:18;5.20;99.90
24148;DHT22;12309;51.450;-2.624;2023-02-25T06:57:44;3.70;99.90
24148;DHT22;12309;51.450;-2.624;2023-02-25T07:00:10;3.70;99.90
24148;DHT22;12309;51.450;-2.624;2023-02-25T07:02:36;3.40;99.90
24148;DHT22;12309;51.450;-2.624;2023-02-25T07:05:02;4.50;99.90
24148;DHT22;12309;51.450;-2.624;2023-02-25T07:07:30;3.80;99.90
24148;DHT22;12309;51.450;-2.624;2023-02-25T07:09:55;3.70;99.90
24148;DHT22;12309;51.450;-2.624;2023-02-25T07:12:21;3.80;99.90
24148;DHT22;12309;51.450;-2.624;2023-02-25T07:14:47;3.80;99.90
24148;DHT22;12309;51.450;-2.624;2023-02-25T07:17:12;3.80;99.90
24148;DHT22;12309;51.450;-2.624;2023-02-25T07:19:38;3.90;99.90
24148;DHT22;12309;51.450;-2.624;2023-02-25T07:22:04;3.90;99.90
24148;DHT22;12309;51.450;-2.624;2023-02-25T07:24:30;4.00;99.90
24148;DHT22;12309;51.450;-2.624;2023-02-25T07:26:55;4.20;99.90
24148;DHT22;12309;51.450;-2.624;2023-02-25T07:29:21;3.90;99.90
24148;DHT22;12309;51.450;-2.624;2023-02-25T07:31:47;4.20;99.90
24148;DHT22;12309;51.450;-2.624;2023-02-25T07:34:13;4.20;99.90
24148;DHT22;12309;51.450;-2.624;2023-02-25T07:36:39;4.20;99.90
24148;DHT22;12309;51.450;-2.624;2023-02-25T07:39:07;4.20;99.90
24148;DHT22;12309;51.450;-2.624;2023-02-25T07:41:34;4.30;99.90
24148;DHT22;12309;51.450;-2.624;2023-02-25T07:44:00;4.30;99.90
24148;DHT22;12309;51.450;-2.624;2023-02-25T07:46:26;4.40;99.90
24148;DHT22;12309;51.450;-2.624;2023-02-25T07:48:52;4.40;99.90
24148;DHT22;12309;51.450;-2.624;2023-02-25T07:51:20;4.50;99.90
24148;DHT22;12309;51.450;-2.624;2023-02-25T07:53:47;4.60;99.90
24148;DHT22;12309;51.450;-2.624;2023-02-25T07:56:14;4.60;99.90
24148;DHT22;12309;51.450;-2.624;2023-02-25T07:58:40;4.80;99.90
24148;DHT22;12309;51.450;-2.624;2023-02-25T08:01:08;5.00;99.90
24148;DHT22;12309;51.450;-2.624;2023-02-25T08:03:34;4.90;99.90
24148;DHT22;12309;51.450;-2.624;2023-02-25T08:05:59;5.10;99.90
24148;DHT22;12309;51.450;-2.624;2023-02-25T08:08:27;5.10;99.90
24148;DHT22;12309;51.450;-2.624;2023-02-25T08:10:53;5.10;99.90
24148;DHT22;12309;51.450;-2.624;2023-02-25T08:13:19;5.00;99.90
24148;DHT22;12309;51.450;-2.624;2023-02-25T08:15:44;4.90;99.90
24148;DHT22;12309;51.450;-2.624;2023-02-25T08:18:11;5.00;99.90
24148;DHT22;12309;51.450;-2.624;2023-02-25T08:20:37;4.90;99.90
24148;DHT22;12309;51.450;-2.624;2023-02-25T08:23:03;5.40;99.90
24148;DHT22;12309;51.450;-2.624;2023-02-25T08:25:29;4.90;99.90
24148;DHT22;12309;51.450;-2.624;2023-02-25T08:27:55;4.90;99.90
24148;DHT22;12309;51.450;-2.624;2023-02-25T08:30:20;4.90;99.90
24148;DHT22;12309;51.450;-2.624;2023-02-25T08:32:46;4.90;99.90
24148;DHT22;12309;51.450;-2.624;2023-02-25T08:35:13;5.00;99.90
24148;DHT22;12309;51.450;-2.624;2023-02-25T08:37:39;5.20;99.90
24148;DHT22;12309;51.450;-2.624;2023-02-25T08:40:05;5.50;99.90
24148;DHT22;12309;51.450;-2.624;2023-02-25T08:42:35;5.40;99.90
24148;DHT22;12309;51.450;-2.624;2023-02-25T08:45:01;5.40;99.90
24148;DHT22;12309;51.450;-2.624;2023-02-25T08:47:27;5.60;99.90
24148;DHT22;12309;51.450;-2.624;2023-02-25T08:49:52;5.70;99.90
24148;DHT22;12309;51.450;-2.624;2023-02-25T08:52:18;5.80;99.90
24148;DHT22;12309;51.450;-2.624;2023-02-25T08:54:44;5.80;99.90
24148;DHT22;12309;51.450;-2.624;2023-02-25T08:57:10;5.30;99.90
24148;DHT22;12309;51.450;-2.624;2023-02-25T08:59:36;5.80;99.90
24148;DHT22;12309;51.450;-2.624;2023-02-25T09:02:03;5.90;99.90
24148;DHT22;12309;51.450;-2.624;2023-02-25T09:04:31;5.90;99.90
24148;DHT22;12309;51.450;-2.624;2023-02-25T09:09:24;6.20;99.90
24148;DHT22;12309;51.450;-2.624;2023-02-25T09:11:50;6.30;99.90
24148;DHT22;12309;51.450;-2.624;2023-02-25T09:14:16;6.10;99.90
24148;DHT22;12309;51.450;-2.624;2023-02-25T09:16:42;6.30;99.90
24148;DHT22;12309;51.450;-2.624;2023-02-25T09:19:08;6.70;99.90
24148;DHT22;12309;51.450;-2.624;2023-02-25T09:21:36;7.50;99.90
24148;DHT22;12309;51.450;-2.624;2023-02-25T09:24:01;7.80;99.90
24148;DHT22;12309;51.450;-2.624;2023-02-25T09:26:27;7.40;99.90
24148;DHT22;12309;51.450;-2.624;2023-02-25T09:28:52;7.40;99.90
24148;DHT22;12309;51.450;-2.624;2023-02-25T09:31:18;7.70;99.90
24148;DHT22;12309;51.450;-2.624;2023-02-25T09:33:44;8.10;99.90
24148;DHT22;12309;51.450;-2.624;2023-02-25T09:36:18;8.30;99.90
24148;DHT22;12309;51.450;-2.624;2023-02-25T09:38:45;8.50;99.90
24148;DHT22;12309;51.450;-2.624;2023-02-25T09:41:27;9.00;99.90
24148;DHT22;12309;51.450;-2.624;2023-02-25T09:46:32;7.90;99.90
24148;DHT22;12309;51.450;-2.624;2023-02-25T09:51:43;7.70;99.90
24148;DHT22;12309;51.450;-2.624;2023-02-25T09:54:22;7.50;99.90
24148;DHT22;12309;51.450;-2.624;2023-02-25T09:56:53;7.60;99.90
24148;DHT22;12309;51.450;-2.624;2023-02-25T09:59:19;7.60;99.90
24148;DHT22;12309;51.450;-2.624;2023-02-25T10:04:42;7.10;99.90
24148;DHT22;12309;51.450;-2.624;2023-02-25T10:07:20;7.00;99.90
24148;DHT22;12309;51.450;-2.624;2023-02-25T10:10:08;7.10;99.90
24148;DHT22;12309;51.450;-2.624;2023-02-25T10:12:55;6.90;99.90
24148;DHT22;12309;51.450;-2.624;2023-02-25T10:15:50;6.80;99.90
24148;DHT22;12309;51.450;-2.624;2023-02-25T10:19:42;6.70;99.90
24148;DHT22;12309;51.450;-2.624;2023-02-25T10:24:35;6.90;99.90
24148;DHT22;12309;51.450;-2.624;2023-02-25T10:27:13;6.80;99.90
24148;DHT22;12309;51.450;-2.624;2023-02-25T10:29:44;6.80;99.90
24148;DHT22;12309;51.450;-2.624;2023-02-25T10:32:25;6.70;99.90
24148;DHT22;12309;51.450;-2.624;2023-02-25T10:34:53;7.40;99.90
24148;DHT22;12309;51.450;-2.624;2023-02-25T10:37:30;7.60;99.90
24148;DHT22;12309;51.450;-2.624;2023-02-25T10:39:59;7.60;99.90
24148;DHT22;12309;51.450;-2.624;2023-02-25T10:42:26;8.00;99.90
24148;DHT22;12309;51.450;-2.624;2023-02-25T10:44:52;8.30;99.90
24148;DHT22;12309;51.450;-2.624;2023-02-25T10:47:34;8.30;99.90
24148;DHT22;12309;51.450;-2.624;2023-02-25T10:50:29;8.20;99.90
24148;DHT22;12309;51.450;-2.624;2023-02-25T10:53:03;7.50;99.90
24148;DHT22;12309;51.450;-2.624;2023-02-25T10:55:45;8.70;99.90
24148;DHT22;12309;51.450;-2.624;2023-02-25T10:58:42;8.90;99.90
24148;DHT22;12309;51.450;-2.624;2023-02-25T11:01:17;9.10;99.90
24148;DHT22;12309;51.450;-2.624;2023-02-25T11:04:03;9.40;99.90
24148;DHT22;12309;51.450;-2.624;2023-02-25T11:06:35;10.10;99.90
24148;DHT22;12309;51.450;-2.624;2023-02-25T11:09:05;9.90;99.90
24148;DHT22;12309;51.450;-2.624;2023-02-25T11:11:33;10.50;99.90
24148;DHT22;12309;51.450;-2.624;2023-02-25T11:14:16;10.40;99.90
24148;DHT22;12309;51.450;-2.624;2023-02-25T11:16:44;9.70;99.90
24148;DHT22;12309;51.450;-2.624;2023-02-25T11:19:25;9.70;99.90
24148;DHT22;12309;51.450;-2.624;2023-02-25T11:21:52;9.60;99.90
24148;DHT22;12309;51.450;-2.624;2023-02-25T11:24:33;9.60;99.90
24148;DHT22;12309;51.450;-2.624;2023-02-25T11:27:01;9.40;99.90
24148;DHT22;12309;51.450;-2.624;2023-02-25T11:29:37;8.50;99.90
24148;DHT22;12309;51.450;-2.624;2023-02-25T11:32:15;8.70;99.90
24148;DHT22;12309;51.450;-2.624;2023-02-25T11:34:51;8.70;99.90
24148;DHT22;12309;51.450;-2.624;2023-02-25T11:37:37;8.60;99.90
24148;DHT22;12309;51.450;-2.624;2023-02-25T11:40:25;8.50;99.90
24148;DHT22;12309;51.450;-2.624;2023-02-25T11:43:07;8.50;99.90
24148;DHT22;12309;51.450;-2.624;2023-02-25T11:45:45;8.40;99.90
24148;DHT22;12309;51.450;-2.624;2023-02-25T11:48:21;8.30;99.90
24148;DHT22;12309;51.450;-2.624;2023-02-25T11:50:59;8.10;99.90
24148;DHT22;12309;51.450;-2.624;2023-02-25T11:56:11;8.30;99.90
24148;DHT22;12309;51.450;-2.624;2023-02-25T12:01:35;8.20;99.90
24148;DHT22;12309;51.450;-2.624;2023-02-25T12:23:52;9.10;99.90
24148;DHT22;12309;51.450;-2.624;2023-02-25T12:26:38;9.00;99.90
24148;DHT22;12309;51.450;-2.624;2023-02-25T12:43:22;10.40;99.90
24148;DHT22;12309;51.450;-2.624;2023-02-25T12:48:42;9.70;99.90
24148;DHT22;12309;51.450;-2.624;2023-02-25T12:54:06;9.40;99.90
24148;DHT22;12309;51.450;-2.624;2023-02-25T12:57:01;9.30;99.90
24148;DHT22;12309;51.450;-2.624;2023-02-25T13:16:33;9.30;99.90
24148;DHT22;12309;51.450;-2.624;2023-02-25T13:22:08;9.30;99.90
24148;DHT22;12309;51.450;-2.624;2023-02-25T13:27:58;9.20;99.90
24148;DHT22;12309;51.450;-2.624;2023-02-25T13:30:48;9.00;99.90
24148;DHT22;12309;51.450;-2.624;2023-02-25T14:13:10;9.10;99.90
24148;DHT22;12309;51.450;-2.624;2023-02-25T14:32:41;8.90;99.90
24148;DHT22;12309;51.450;-2.624;2023-02-25T14:40:37;8.30;99.90
24148;DHT22;12309;51.450;-2.624;2023-02-25T14:46:27;8.10;99.90
24148;DHT22;12309;51.450;-2.624;2023-02-25T14:49:05;8.00;99.90
24148;DHT22;12309;51.450;-2.624;2023-02-25T14:58:01;7.90;99.90
24148;DHT22;12309;51.450;-2.624;2023-02-25T15:06:18;8.60;99.90
24148;DHT22;12309;51.450;-2.624;2023-02-25T15:24:47;8.50;99.90
24148;DHT22;12309;51.450;-2.624;2023-02-25T15:27:41;8.30;99.90
24148;DHT22;12309;51.450;-2.624;2023-02-25T15:30:10;8.60;99.90
24148;DHT22;12309;51.450;-2.624;2023-02-25T15:38:09;10.40;99.90
24148;DHT22;12309;51.450;-2.624;2023-02-25T15:40:44;10.50;99.90
24148;DHT22;12309;51.450;-2.624;2023-02-25T15:45:41;12.40;99.90
24148;DHT22;12309;51.450;-2.624;2023-02-25T15:55:46;14.40;99.90
24148;DHT22;12309;51.450;-2.624;2023-02-25T16:06:33;13.50;99.90
24148;DHT22;12309;51.450;-2.624;2023-02-25T16:09:07;13.20;99.90
24148;DHT22;12309;51.450;-2.624;2023-02-25T16:11:45;13.90;99.90
24148;DHT22;12309;51.450;-2.624;2023-02-25T16:14:28;14.10;99.90
24148;DHT22;12309;51.450;-2.624;2023-02-25T16:16:57;13.80;99.90
24148;DHT22;12309;51.450;-2.624;2023-02-25T16:19:28;12.70;99.90
24148;DHT22;12309;51.450;-2.624;2023-02-25T16:24:49;12.20;99.90
24148;DHT22;12309;51.450;-2.624;2023-02-25T16:35:22;14.30;99.90
24148;DHT22;12309;51.450;-2.624;2023-02-25T16:42:57;12.90;99.90
24148;DHT22;12309;51.450;-2.624;2023-02-25T16:45:33;11.20;99.90
24148;DHT22;12309;51.450;-2.624;2023-02-25T16:48:44;10.80;99.90
24148;DHT22;12309;51.450;-2.624;2023-02-25T16:51:36;10.60;99.90
24148;DHT22;12309;51.450;-2.624;2023-02-25T16:54:20;10.00;99.90
24148;DHT22;12309;51.450;-2.624;2023-02-25T16:56:51;9.80;99.90
24148;DHT22;12309;51.450;-2.624;2023-02-25T16:59:20;9.40;99.90
24148;DHT22;12309;51.450;-2.624;2023-02-25T17:04:20;9.00;99.90
24148;DHT22;12309;51.450;-2.624;2023-02-25T17:07:06;9.10;99.90
24148;DHT22;12309;51.450;-2.624;2023-02-25T17:09:32;8.80;99.90
24148;DHT22;12309;51.450;-2.624;2023-02-25T17:12:00;8.90;99.90
24148;DHT22;12309;51.450;-2.624;2023-02-25T17:14:28;8.80;99.90
24148;DHT22;12309;51.450;-2.624;2023-02-25T17:16:55;8.80;99.90
24148;DHT22;12309;51.450;-2.624;2023-02-25T17:19:21;8.70;99.90
24148;DHT22;12309;51.450;-2.624;2023-02-25T17:21:55;8.50;99.90
24148;DHT22;12309;51.450;-2.624;2023-02-25T17:24:28;8.50;99.90
24148;DHT22;12309;51.450;-2.624;2023-02-25T17:26:55;8.70;99.90
24148;DHT22;12309;51.450;-2.624;2023-02-25T17:29:21;8.30;99.90
24148;DHT22;12309;51.450;-2.624;2023-02-25T17:31:56;8.60;99.90
24148;DHT22;12309;51.450;-2.624;2023-02-25T17:34:30;8.20;99.90
24148;DHT22;12309;51.450;-2.624;2023-02-25T17:36:59;8.20;99.90
24148;DHT22;12309;51.450;-2.624;2023-02-25T17:39:27;9.10;99.90
24148;DHT22;12309;51.450;-2.624;2023-02-25T17:41:54;8.10;99.90
24148;DHT22;12309;51.450;-2.624;2023-02-25T17:47:05;8.00;99.90
24148;DHT22;12309;51.450;-2.624;2023-02-25T17:49:34;8.00;99.90
24148;DHT22;12309;51.450;-2.624;2023-02-25T17:52:14;8.00;99.90
24148;DHT22;12309;51.450;-2.624;2023-02-25T17:54:45;7.70;99.90
24148;DHT22;12309;51.450;-2.624;2023-02-25T17:57:18;8.10;99.90
24148;DHT22;12309;51.450;-2.624;2023-02-25T17:59:57;7.80;99.90
24148;DHT22;12309;51.450;-2.624;2023-02-25T18:07:41;7.80;99.90
24148;DHT22;12309;51.450;-2.624;2023-02-25T18:15:19;7.60;99.90
24148;DHT22;12309;51.450;-2.624;2023-02-25T18:17:51;7.60;99.90
24148;DHT22;12309;51.450;-2.624;2023-02-25T18:25:34;7.40;99.90
24148;DHT22;12309;51.450;-2.624;2023-02-25T18:28:01;7.30;99.90
24148;DHT22;12309;51.450;-2.624;2023-02-25T18:30:29;7.50;99.90
24148;DHT22;12309;51.450;-2.624;2023-02-25T18:32:55;7.40;99.90
24148;DHT22;12309;51.450;-2.624;2023-02-25T18:35:25;7.50;99.90
24148;DHT22;12309;51.450;-2.624;2023-02-25T18:37:53;7.30;99.90
24148;DHT22;12309;51.450;-2.624;2023-02-25T18:40:31;7.30;99.90
24148;DHT22;12309;51.450;-2.624;2023-02-25T18:42:57;7.50;99.90
24148;DHT22;12309;51.450;-2.624;2023-02-25T18:47:52;7.30;99.90
24148;DHT22;12309;51.450;-2.624;2023-02-25T18:52:45;7.00;99.90
24148;DHT22;12309;51.450;-2.624;2023-02-25T18:55:22;7.20;99.90
24148;DHT22;12309;51.450;-2.624;2023-02-25T18:57:49;7.30;99.90
24148;DHT22;12309;51.450;-2.624;2023-02-25T19:00:16;7.00;99.90
24148;DHT22;12309;51.450;-2.624;2023-02-25T19:03:03;6.20;99.90
24148;DHT22;12309;51.450;-2.624;2023-02-25T19:05:29;6.90;99.90
24148;DHT22;12309;51.450;-2.624;2023-02-25T19:07:56;6.80;99.90
24148;DHT22;12309;51.450;-2.624;2023-02-25T19:10:29;6.70;99.90
24148;DHT22;12309;51.450;-2.624;2023-02-25T19:13:07;6.80;99.90
24148;DHT22;12309;51.450;-2.624;2023-02-25T19:15:36;6.60;99.90
24148;DHT22;12309;51.450;-2.624;2023-02-25T19:18:02;7.10;99.90
24148;DHT22;12309;51.450;-2.624;2023-02-25T19:20:27;6.50;99.90
24148;DHT22;12309;51.450;-2.624;2023-02-25T19:22:53;6.50;99.90
24148;DHT22;12309;51.450;-2.624;2023-02-25T19:25:27;6.40;99.90
24148;DHT22;12309;51.450;-2.624;2023-02-25T19:27:55;6.30;99.90
24148;DHT22;12309;51.450;-2.624;2023-02-25T19:30:23;6.40;99.90
24148;DHT22;12309;51.450;-2.624;2023-02-25T19:32:50;6.40;99.90
24148;DHT22;12309;51.450;-2.624;2023-02-25T19:37:42;5.90;99.90
24148;DHT22;12309;51.450;-2.624;2023-02-25T19:40:10;6.20;99.90
24148;DHT22;12309;51.450;-2.624;2023-02-25T19:42:38;6.10;99.90
24148;DHT22;12309;51.450;-2.624;2023-02-25T19:45:06;6.40;99.90
24148;DHT22;12309;51.450;-2.624;2023-02-25T19:47:32;6.50;99.90
24148;DHT22;12309;51.450;-2.624;2023-02-25T19:49:58;6.00;99.90
24148;DHT22;12309;51.450;-2.624;2023-02-25T19:52:23;6.30;99.90
24148;DHT22;12309;51.450;-2.624;2023-02-25T19:54:49;6.10;99.90
24148;DHT22;12309;51.450;-2.624;2023-02-25T19:57:15;6.30;99.90
24148;DHT22;12309;51.450;-2.624;2023-02-25T19:59:41;6.20;99.90
24148;DHT22;12309;51.450;-2.624;2023-02-25T20:02:08;6.20;99.90
24148;DHT22;12309;51.450;-2.624;2023-02-25T20:04:35;6.30;99.90
24148;DHT22;12309;51.450;-2.624;2023-02-25T20:07:01;6.00;99.90
24148;DHT22;12309;51.450;-2.624;2023-02-25T20:09:26;6.20;99.90
24148;DHT22;12309;51.450;-2.624;2023-02-25T20:11:52;6.10;99.90
24148;DHT22;12309;51.450;-2.624;2023-02-25T20:16:44;6.00;99.90
24148;DHT22;12309;51.450;-2.624;2023-02-25T20:19:09;5.80;99.90
24148;DHT22;12309;51.450;-2.624;2023-02-25T20:21:35;6.00;99.90
24148;DHT22;12309;51.450;-2.624;2023-02-25T20:24:01;5.90;99.90